createdAt,value
2019-05-01T00:01:01.364Z,41.42
2019-05-01T00:03:49.741Z,39.80
2019-05-01T00:06:19.870Z,38.73
2019-05-01T00:08:49.596Z,40.83
2019-05-01T00:11:18.084Z,40.52
2019-05-01T00:13:46.669Z,37.23
2019-05-01T00:16:15.092Z,35.13
2019-05-01T00:18:43.532Z,35.10
2019-05-01T00:21:11.964Z,38.15
2019-05-01T00:23:40.394Z,37.88
2019-05-01T00:26:08.829Z,39.05
2019-05-01T00:28:37.356Z,37.15
2019-05-01T00:31:05.820Z,38.73
2019-05-01T00:33:34.259Z,34.78
2019-05-01T00:36:02.716Z,39.48
2019-05-01T00:38:31.231Z,39.85
2019-05-01T00:40:59.740Z,37.83
2019-05-01T00:43:28.208Z,36.93
2019-05-01T00:45:56.628Z,37.25
2019-05-01T00:48:25.177Z,35.25
2019-05-01T00:50:53.579Z,36.88
2019-05-01T00:53:22.013Z,36.28
2019-05-01T00:55:52.105Z,36.17
2019-05-01T00:58:28.116Z,38.60
2019-05-01T01:01:07.190Z,37.75
2019-05-01T01:03:39.961Z,40.48
2019-05-01T01:06:08.964Z,40.45
2019-05-01T01:08:37.403Z,39.25
2019-05-01T01:11:05.812Z,37.03
2019-05-01T01:13:34.230Z,36.08
2019-05-01T01:16:02.692Z,36.20
2019-05-01T01:18:31.110Z,31.80
2019-05-01T01:20:59.545Z,33.55
2019-05-01T01:23:27.969Z,37.23
2019-05-01T01:25:56.562Z,37.45
2019-05-01T01:28:25.127Z,39.90
2019-05-01T01:30:56.458Z,41.53
2019-05-01T01:33:23.770Z,36.93
2019-05-01T01:35:52.201Z,42.20
2019-05-01T01:38:20.732Z,38.70
2019-05-01T01:40:49.328Z,37.95
2019-05-01T01:43:35.564Z,38.92
2019-05-01T01:46:09.542Z,36.83
2019-05-01T01:48:38.313Z,39.08
2019-05-01T01:51:06.815Z,36.35
2019-05-01T01:53:36.382Z,38.35
2019-05-01T01:56:04.954Z,36.75
2019-05-01T01:58:33.441Z,38.65
2019-05-01T02:01:09.620Z,34.92
2019-05-01T02:03:44.587Z,35.73
2019-05-01T02:06:13.157Z,36.77
2019-05-01T02:08:41.718Z,36.90
2019-05-01T02:11:10.216Z,37.45
2019-05-01T02:13:38.752Z,36.13
2019-05-01T02:16:07.146Z,37.20
2019-05-01T02:18:35.576Z,37.53
2019-05-01T02:21:04.637Z,39.20
2019-05-01T02:23:33.065Z,37.80
2019-05-01T02:26:02.214Z,35.78
2019-05-01T02:28:35.160Z,41.40
2019-05-01T02:31:26.996Z,39.58
2019-05-01T02:33:44.741Z,38.02
2019-05-01T02:36:16.421Z,37.78
2019-05-01T02:38:47.163Z,36.60
2019-05-01T02:41:16.828Z,40.03
2019-05-01T02:43:49.988Z,39.67
2019-05-01T02:46:21.219Z,39.73
2019-05-01T02:48:55.396Z,40.25
2019-05-01T02:51:26.155Z,38.02
2019-05-01T02:53:56.030Z,37.28
2019-05-01T02:56:26.819Z,40.35
2019-05-01T02:59:04.361Z,37.42
2019-05-01T03:01:46.427Z,39.10
2019-05-01T03:04:05.514Z,38.23
2019-05-01T03:06:35.740Z,39.58
2019-05-01T03:09:10.779Z,38.75
2019-05-01T03:11:41.572Z,38.58
2019-05-01T03:14:13.053Z,43.65
2019-05-01T03:16:42.891Z,43.73
2019-05-01T03:19:18.602Z,44.08
2019-05-01T03:21:54.762Z,39.05
2019-05-01T03:24:25.491Z,43.95
2019-05-01T03:26:55.071Z,40.43
2019-05-01T03:29:29.279Z,41.30
2019-05-01T03:32:16.042Z,39.80
2019-05-01T03:34:28.987Z,44.42
2019-05-01T03:36:57.528Z,42.95
2019-05-01T03:39:26.596Z,41.65
2019-05-01T03:41:55.183Z,42.45
2019-05-01T03:44:24.310Z,41.58
2019-05-01T03:46:53.767Z,41.77
2019-05-01T03:49:22.393Z,39.85
2019-05-01T03:51:50.821Z,40.83
2019-05-01T03:54:19.429Z,41.37
2019-05-01T03:56:48.114Z,42.30
2019-05-01T03:59:17.419Z,40.67
2019-05-01T04:01:47.751Z,41.45
2019-05-01T04:04:18.562Z,42.10
2019-05-01T04:06:48.358Z,43.60
2019-05-01T04:09:18.366Z,40.90
2019-05-01T04:11:47.029Z,41.28
2019-05-01T04:14:15.581Z,44.80
2019-05-01T04:16:45.892Z,41.73
2019-05-01T04:19:16.163Z,46.58
2019-05-01T04:21:46.295Z,44.50
2019-05-01T04:24:15.549Z,43.65
2019-05-01T04:26:43.978Z,46.63
2019-05-01T04:29:15.265Z,49.53
2019-05-01T04:32:00.642Z,44.67
2019-05-01T04:34:42.517Z,47.50
2019-05-01T04:37:13.247Z,43.08
2019-05-01T04:39:47.900Z,47.33
2019-05-01T04:42:16.551Z,44.53
2019-05-01T04:44:45.334Z,39.05
2019-05-01T04:47:14.408Z,48.52
2019-05-01T04:49:43.600Z,48.33
2019-05-01T04:52:12.179Z,40.88
2019-05-01T04:54:40.838Z,46.98
2019-05-01T04:57:09.365Z,40.67
2019-05-01T04:59:38.345Z,41.02
2019-05-01T05:02:08.866Z,41.25
2019-05-01T05:04:37.664Z,43.95
2019-05-01T05:07:06.335Z,37.20
2019-05-01T05:09:46.233Z,43.85
2019-05-01T05:12:26.306Z,36.08
2019-05-01T05:14:56.552Z,40.25
2019-05-01T05:17:26.721Z,40.25
2019-05-01T05:19:56.191Z,40.38
2019-05-01T05:22:24.911Z,39.45
2019-05-01T05:24:54.568Z,37.75
2019-05-01T05:27:24.556Z,33.33
2019-05-01T05:29:57.222Z,29.10
2019-05-01T05:32:28.784Z,30.85
2019-05-01T05:34:59.297Z,35.70
2019-05-01T05:37:31.483Z,40.25
2019-05-01T05:40:01.447Z,38.30
2019-05-01T05:42:30.730Z,35.38
2019-05-01T05:44:59.633Z,36.95
2019-05-01T05:47:35.618Z,35.10
2019-05-01T05:50:06.372Z,33.38
2019-05-01T05:52:44.269Z,29.60
2019-05-01T05:55:26.475Z,29.23
2019-05-01T05:57:59.333Z,30.12
2019-05-01T06:00:36.670Z,27.02
2019-05-01T06:03:31.033Z,28.05
2019-05-01T06:05:58.472Z,32.00
2019-05-01T06:08:30.521Z,27.87
2019-05-01T06:11:07.945Z,34.45
2019-05-01T06:13:56.981Z,29.40
2019-05-01T06:16:32.000Z,30.08
2019-05-01T06:19:17.720Z,33.25
2019-05-01T06:21:55.918Z,33.90
2019-05-01T06:24:28.732Z,29.57
2019-05-01T06:26:57.908Z,31.85
2019-05-01T06:29:30.951Z,32.23
2019-05-01T06:31:58.707Z,34.40
2019-05-01T06:34:28.643Z,33.30
2019-05-01T06:36:57.368Z,31.02
2019-05-01T06:39:25.944Z,33.28
2019-05-01T06:41:54.627Z,30.10
2019-05-01T06:44:33.563Z,35.40
2019-05-01T06:47:12.267Z,37.08
2019-05-01T06:49:43.091Z,34.18
2019-05-01T06:52:13.218Z,29.25
2019-05-01T06:54:41.787Z,32.25
2019-05-01T06:57:10.390Z,34.73
2019-05-01T06:59:40.676Z,31.75
2019-05-01T07:02:12.142Z,33.88
2019-05-01T07:04:42.241Z,29.50
2019-05-01T07:07:24.764Z,31.57
2019-05-01T07:09:44.082Z,34.00
2019-05-01T07:12:15.437Z,31.07
2019-05-01T07:14:47.029Z,32.38
2019-05-01T07:17:14.975Z,30.75
2019-05-01T07:19:54.598Z,31.45
2019-05-01T07:22:23.089Z,30.85
2019-05-01T07:24:52.155Z,33.05
2019-05-01T07:27:23.630Z,29.90
2019-05-01T07:29:53.838Z,28.20
2019-05-01T07:32:23.105Z,30.23
2019-05-01T07:34:51.690Z,26.05
2019-05-01T07:37:20.857Z,25.12
2019-05-01T07:39:51.828Z,30.55
2019-05-01T07:42:28.523Z,33.53
2019-05-01T07:45:08.230Z,30.43
2019-05-01T07:47:40.013Z,31.55
2019-05-01T07:50:17.542Z,31.42
2019-05-01T07:52:47.788Z,31.40
2019-05-01T07:55:20.243Z,34.60
2019-05-01T07:57:48.889Z,33.95
2019-05-01T08:00:41.065Z,32.05
2019-05-01T08:03:07.376Z,32.67
2019-05-01T08:05:40.820Z,35.45
2019-05-01T08:08:07.895Z,33.33
2019-05-01T08:10:38.539Z,32.50
2019-05-01T08:13:06.961Z,34.00
2019-05-01T08:15:35.382Z,32.00
2019-05-01T08:18:24.038Z,35.30
2019-05-01T08:20:55.087Z,31.70
2019-05-01T08:23:23.524Z,29.15
2019-05-01T08:25:51.935Z,37.93
2019-05-01T08:28:31.644Z,35.40
2019-05-01T08:31:15.681Z,34.27
2019-05-01T08:33:54.579Z,33.28
2019-05-01T08:36:23.077Z,33.83
2019-05-01T08:38:51.576Z,34.00
2019-05-01T08:41:20.030Z,31.20
2019-05-01T08:43:53.460Z,36.00
2019-05-01T08:46:32.834Z,35.00
2019-05-01T08:49:13.245Z,35.15
2019-05-01T08:51:41.658Z,35.88
2019-05-01T08:54:10.160Z,30.95
2019-05-01T08:56:38.758Z,34.27
2019-05-01T08:59:13.588Z,33.85
2019-05-01T09:01:45.758Z,33.13
2019-05-01T09:04:13.304Z,34.38
2019-05-01T09:06:43.863Z,35.25
2019-05-01T09:09:13.282Z,35.50
2019-05-01T09:11:41.700Z,36.35
2019-05-01T09:14:10.152Z,36.88
2019-05-01T09:16:38.566Z,37.75
2019-05-01T09:19:07.069Z,37.10
2019-05-01T09:21:37.730Z,37.30
2019-05-01T09:24:06.691Z,36.38
2019-05-01T09:26:45.386Z,34.50
2019-05-01T09:29:20.321Z,36.03
2019-05-01T09:31:49.811Z,33.48
2019-05-01T09:34:19.253Z,34.98
2019-05-01T09:36:48.473Z,34.55
2019-05-01T09:39:18.872Z,33.85
2019-05-01T09:41:48.662Z,34.18
2019-05-01T09:44:17.306Z,36.65
2019-05-01T09:46:45.739Z,36.58
2019-05-01T09:49:17.793Z,36.55
2019-05-01T09:51:49.326Z,35.45
2019-05-01T09:54:31.493Z,32.70
2019-05-01T09:57:00.009Z,34.78
2019-05-01T09:59:31.913Z,35.30
2019-05-01T10:02:02.921Z,37.53
2019-05-01T10:04:32.366Z,35.60
2019-05-01T10:07:02.290Z,34.98
2019-05-01T10:09:30.847Z,35.75
2019-05-01T10:11:59.263Z,32.10
2019-05-01T10:14:31.600Z,34.43
2019-05-01T10:16:57.847Z,37.88
2019-05-01T10:19:26.276Z,33.40
2019-05-01T10:21:57.862Z,35.40
2019-05-01T10:24:24.859Z,34.92
2019-05-01T10:26:59.973Z,35.33
2019-05-01T10:29:43.173Z,31.97
2019-05-01T10:32:16.978Z,33.38
2019-05-01T10:35:01.388Z,32.25
2019-05-01T10:37:33.582Z,34.78
2019-05-01T10:40:00.037Z,33.83
2019-05-01T10:42:28.473Z,33.90
2019-05-01T10:44:56.881Z,33.75
2019-05-01T10:47:25.322Z,34.80
2019-05-01T10:49:53.750Z,30.95
2019-05-01T10:52:22.218Z,37.25
2019-05-01T10:54:50.702Z,35.88
2019-05-01T10:57:19.222Z,35.52
2019-05-01T10:59:47.674Z,37.93
2019-05-01T11:02:17.745Z,39.45
2019-05-01T11:04:46.301Z,40.70
2019-05-01T11:07:14.749Z,38.70
2019-05-01T11:09:43.185Z,38.63
2019-05-01T11:12:11.613Z,41.35
2019-05-01T11:14:40.038Z,39.98
2019-05-01T11:17:08.519Z,36.75
2019-05-01T11:19:36.938Z,37.85
2019-05-01T11:22:05.627Z,35.95
2019-05-01T11:24:34.120Z,36.75
2019-05-01T11:27:02.629Z,36.73
2019-05-01T11:29:31.058Z,40.98
2019-05-01T11:32:07.076Z,36.50
2019-05-01T11:34:37.116Z,34.20
2019-05-01T11:37:08.508Z,38.17
2019-05-01T11:39:40.942Z,37.85
2019-05-01T11:42:13.228Z,35.90
2019-05-01T11:44:41.657Z,34.80
2019-05-01T11:47:19.178Z,38.30
2019-05-01T11:49:47.608Z,40.12
2019-05-01T11:52:16.034Z,35.30
2019-05-01T11:54:44.447Z,39.20
2019-05-01T11:57:12.885Z,40.23
2019-05-01T11:59:41.345Z,36.45
2019-05-01T12:02:09.773Z,36.90
2019-05-01T12:04:38.215Z,39.67
2019-05-01T12:07:06.724Z,39.13
2019-05-01T12:09:35.224Z,36.13
2019-05-01T12:12:05.474Z,41.18
2019-05-01T12:14:34.562Z,40.98
2019-05-01T12:17:19.342Z,38.10
2019-05-01T12:19:47.777Z,37.35
2019-05-01T12:22:16.216Z,40.67
2019-05-01T12:24:44.656Z,38.05
2019-05-01T12:27:13.169Z,38.05
2019-05-01T12:29:41.627Z,41.73
2019-05-01T12:32:10.043Z,40.12
2019-05-01T12:34:39.155Z,36.70
2019-05-01T12:37:17.911Z,37.00
2019-05-01T12:39:46.550Z,39.85
2019-05-01T12:42:16.583Z,41.58
2019-05-01T12:44:46.575Z,39.15
2019-05-01T12:47:16.780Z,42.80
2019-05-01T12:49:46.917Z,40.35
2019-05-01T12:52:19.718Z,42.80
2019-05-01T12:54:52.893Z,40.50
2019-05-01T12:57:21.323Z,37.08
2019-05-01T12:59:49.775Z,37.42
2019-05-01T13:02:18.207Z,41.33
2019-05-01T13:04:46.632Z,39.92
2019-05-01T13:07:15.137Z,40.38
2019-05-01T13:09:43.553Z,39.85
2019-05-01T13:12:12.001Z,34.70
2019-05-01T13:14:40.412Z,42.88
2019-05-01T13:17:08.861Z,41.95
2019-05-01T13:19:37.271Z,39.20
2019-05-01T13:22:05.773Z,42.43
2019-05-01T13:24:35.850Z,39.27
2019-05-01T13:27:06.157Z,40.45
2019-05-01T13:29:38.891Z,42.67
2019-05-01T13:32:13.200Z,42.05
2019-05-01T13:34:41.622Z,45.70
2019-05-01T13:37:10.058Z,44.93
2019-05-01T13:39:38.498Z,43.30
2019-05-01T13:42:09.086Z,45.20
2019-05-01T13:44:37.659Z,44.77
2019-05-01T13:47:06.092Z,44.00
2019-05-01T13:49:34.517Z,47.83
2019-05-01T13:52:02.949Z,47.45
2019-05-01T13:54:31.439Z,44.50
2019-05-01T13:56:59.906Z,47.98
2019-05-01T13:59:28.332Z,47.95
2019-05-01T14:01:56.836Z,46.83
2019-05-01T14:04:40.261Z,46.05
2019-05-01T14:07:16.192Z,47.53
2019-05-01T14:09:39.102Z,43.13
2019-05-01T14:12:07.595Z,49.00
2019-05-01T14:14:36.031Z,48.28
2019-05-01T14:17:04.532Z,47.45
2019-05-01T14:19:34.345Z,48.50
2019-05-01T14:22:20.797Z,48.75
2019-05-01T14:25:11.295Z,47.48
2019-05-01T14:27:39.822Z,49.25
2019-05-01T14:30:10.397Z,45.90
2019-05-01T14:32:38.843Z,45.73
2019-05-01T14:35:25.733Z,46.60
2019-05-01T14:37:54.172Z,47.13
2019-05-01T14:40:22.600Z,45.78
2019-05-01T14:42:51.073Z,42.58
2019-05-01T14:45:19.754Z,46.85
2019-05-01T14:47:51.544Z,47.30
2019-05-01T14:50:19.984Z,50.28
2019-05-01T14:52:48.453Z,48.13
2019-05-01T14:55:16.891Z,45.48
2019-05-01T14:57:45.387Z,48.33
2019-05-01T15:00:14.633Z,47.65
2019-05-01T15:02:43.085Z,48.40
2019-05-01T15:05:11.772Z,47.17
2019-05-01T15:07:43.890Z,51.23
2019-05-01T15:10:10.588Z,48.00
2019-05-01T15:12:42.074Z,49.90
2019-05-01T15:15:28.241Z,49.70
2019-05-01T15:18:01.240Z,50.35
2019-05-01T15:20:29.688Z,47.98
2019-05-01T15:23:04.373Z,50.17
2019-05-01T15:25:32.837Z,50.63
2019-05-01T15:28:01.274Z,44.83
2019-05-01T15:30:29.789Z,50.43
2019-05-01T15:32:58.239Z,46.75
2019-05-01T15:35:26.789Z,48.35
2019-05-01T15:37:56.835Z,48.00
2019-05-01T15:40:36.087Z,49.35
2019-05-01T15:43:24.097Z,48.87
2019-05-01T15:45:52.607Z,47.17
2019-05-01T15:48:21.058Z,47.93
2019-05-01T15:50:50.111Z,45.23
2019-05-01T15:53:19.649Z,46.00
2019-05-01T15:55:48.112Z,47.55
2019-05-01T15:58:16.545Z,46.75
2019-05-01T16:00:45.130Z,48.17
2019-05-01T16:03:13.621Z,48.58
2019-05-01T16:05:42.232Z,43.33
2019-05-01T16:08:10.822Z,47.85
2019-05-01T16:10:40.919Z,45.78
2019-05-01T16:13:09.388Z,47.30
2019-05-01T16:15:37.842Z,48.40
2019-05-01T16:18:06.297Z,45.35
2019-05-01T16:20:34.939Z,49.20
2019-05-01T16:23:03.370Z,47.10
2019-05-01T16:25:31.795Z,47.90
2019-05-01T16:28:00.410Z,49.23
2019-05-01T16:30:28.903Z,45.83
2019-05-01T16:32:57.427Z,44.88
2019-05-01T16:35:25.836Z,45.38
2019-05-01T16:37:55.931Z,45.03
2019-05-01T16:40:34.769Z,45.60
2019-05-01T16:43:21.563Z,44.38
2019-05-01T16:45:49.999Z,47.38
2019-05-01T16:48:18.432Z,47.05
2019-05-01T16:50:48.485Z,46.53
2019-05-01T16:53:16.916Z,45.95
2019-05-01T16:55:47.805Z,45.73
2019-05-01T16:58:16.987Z,48.15
2019-05-01T17:01:02.265Z,42.70
2019-05-01T17:03:35.357Z,47.25
2019-05-01T17:06:11.345Z,47.43
2019-05-01T17:08:47.135Z,47.93
2019-05-01T17:11:15.914Z,45.75
2019-05-01T17:13:57.225Z,43.78
2019-05-01T17:16:26.200Z,46.45
2019-05-01T17:18:54.651Z,43.52
2019-05-01T17:21:23.067Z,46.85
2019-05-01T17:23:51.516Z,46.77
2019-05-01T17:26:20.585Z,44.53
2019-05-01T17:28:49.007Z,46.20
2019-05-01T17:31:17.421Z,44.58
2019-05-01T17:33:45.846Z,45.00
2019-05-01T17:36:14.274Z,45.35
2019-05-01T17:38:49.246Z,46.63
2019-05-01T17:41:12.845Z,45.38
2019-05-01T17:43:44.705Z,44.77
2019-05-01T17:46:12.071Z,43.13
2019-05-01T17:48:46.577Z,44.83
2019-05-01T17:51:10.887Z,45.17
2019-05-01T17:53:39.329Z,45.52
2019-05-01T17:56:10.068Z,45.63
2019-05-01T17:58:37.882Z,41.80
2019-05-01T18:01:07.955Z,45.23
2019-05-01T18:03:54.495Z,45.48
2019-05-01T18:06:30.314Z,47.48
2019-05-01T18:09:03.350Z,48.68
2019-05-01T18:11:31.965Z,42.60
2019-05-01T18:14:01.427Z,47.17
2019-05-01T18:16:29.960Z,44.42
2019-05-01T18:18:58.383Z,43.38
2019-05-01T18:21:26.956Z,47.17
2019-05-01T18:24:06.008Z,41.77
2019-05-01T18:26:52.464Z,44.98
2019-05-01T18:29:35.513Z,44.53
2019-05-01T18:32:02.987Z,43.05
2019-05-01T18:34:33.693Z,44.75
2019-05-01T18:37:20.535Z,44.80
2019-05-01T18:39:49.608Z,42.85
2019-05-01T18:42:30.014Z,43.33
2019-05-01T18:44:58.544Z,40.10
2019-05-01T18:47:27.028Z,42.93
2019-05-01T18:49:55.465Z,44.75
2019-05-01T18:52:23.895Z,44.08
2019-05-01T18:54:58.084Z,43.90
2019-05-01T18:57:26.612Z,44.40
2019-05-01T18:59:55.044Z,42.70
2019-05-01T19:02:24.974Z,43.80
2019-05-01T19:04:53.863Z,43.58
2019-05-01T19:07:22.268Z,41.83
2019-05-01T19:09:50.777Z,44.80
2019-05-01T19:12:19.282Z,49.58
2019-05-01T19:14:47.814Z,50.73
2019-05-01T19:17:16.308Z,48.05
2019-05-01T19:19:44.998Z,50.48
2019-05-01T19:22:13.514Z,51.90
2019-05-01T19:24:42.030Z,51.45
2019-05-01T19:27:14.201Z,49.60
2019-05-01T19:29:40.712Z,53.38
2019-05-01T19:32:09.624Z,51.35
2019-05-01T19:34:38.048Z,52.88
2019-05-01T19:37:39.801Z,50.38
2019-05-01T19:40:08.353Z,49.85
2019-05-01T19:42:36.833Z,54.00
2019-05-01T19:45:06.687Z,52.73
2019-05-01T19:47:35.089Z,52.88
2019-05-01T19:50:07.381Z,53.70
2019-05-01T19:52:37.925Z,52.25
2019-05-01T19:55:09.966Z,54.48
2019-05-01T19:57:53.839Z,55.65
2019-05-01T20:00:31.645Z,54.40
2019-05-01T20:03:00.362Z,51.23
2019-05-01T20:05:29.071Z,51.88
2019-05-01T20:08:00.309Z,52.38
2019-05-01T20:10:28.722Z,51.13
2019-05-01T20:12:57.150Z,57.27
2019-05-01T20:15:26.602Z,52.65
2019-05-01T20:17:55.043Z,57.27
2019-05-01T20:20:24.958Z,54.45
2019-05-01T20:22:55.304Z,55.75
2019-05-01T20:25:23.657Z,58.95
2019-05-01T20:27:53.250Z,57.15
2019-05-01T20:30:21.861Z,57.88
2019-05-01T20:32:50.273Z,55.70
2019-05-01T20:35:18.718Z,59.25
2019-05-01T20:37:47.128Z,62.17
2019-05-01T20:40:16.802Z,54.27
2019-05-01T20:42:45.223Z,61.90
2019-05-01T20:45:23.530Z,58.63
2019-05-01T20:47:46.021Z,58.90
2019-05-01T20:50:14.747Z,60.35
2019-05-01T20:52:43.160Z,60.12
2019-05-01T20:55:11.656Z,56.35
2019-05-01T20:57:44.439Z,59.48
2019-05-01T21:00:16.701Z,60.58
2019-05-01T21:02:44.627Z,60.60
2019-05-01T21:05:32.804Z,59.10
2019-05-01T21:08:05.659Z,59.40
2019-05-01T21:10:36.088Z,61.85
2019-05-01T21:13:04.616Z,57.98
2019-05-01T21:15:33.074Z,58.33
2019-05-01T21:18:04.960Z,62.15
2019-05-01T21:20:33.953Z,58.98
2019-05-01T21:23:05.966Z,59.45
2019-05-01T21:25:32.506Z,59.20
2019-05-01T21:28:00.929Z,57.55
2019-05-01T21:30:29.363Z,56.23
2019-05-01T21:32:59.087Z,57.88
2019-05-01T21:35:27.939Z,57.53
2019-05-01T21:37:56.365Z,54.45
2019-05-01T21:40:37.406Z,54.30
2019-05-01T21:42:55.868Z,55.35
2019-05-01T21:45:24.361Z,54.00
2019-05-01T21:47:52.953Z,55.85
2019-05-01T21:50:22.786Z,54.05
2019-05-01T21:52:53.649Z,51.70
2019-05-01T21:55:25.443Z,54.00
2019-05-01T21:57:51.858Z,53.00
2019-05-01T22:00:24.803Z,49.73
2019-05-01T22:02:51.334Z,53.13
2019-05-01T22:05:19.757Z,52.03
2019-05-01T22:07:48.187Z,44.27
2019-05-01T22:10:16.745Z,50.90
2019-05-01T22:12:48.892Z,49.77
2019-05-01T22:15:27.043Z,48.33
2019-05-01T22:17:59.804Z,52.15
2019-05-01T22:20:29.945Z,49.83
2019-05-01T22:23:02.414Z,49.00
2019-05-01T22:25:32.528Z,50.80
2019-05-01T22:28:03.237Z,48.58
2019-05-01T22:31:08.043Z,48.52
2019-05-01T22:33:37.495Z,48.10
2019-05-01T22:36:06.385Z,48.68
2019-05-01T22:38:34.821Z,48.85
2019-05-01T22:41:15.350Z,47.75
2019-05-01T22:43:43.806Z,48.58
2019-05-01T22:46:13.858Z,48.33
2019-05-01T22:48:42.297Z,46.90
2019-05-01T22:51:12.357Z,48.35
2019-05-01T22:53:40.786Z,49.00
2019-05-01T22:56:09.208Z,46.50
2019-05-01T22:58:37.631Z,48.63
2019-05-01T23:01:07.288Z,46.58
2019-05-01T23:03:41.384Z,46.13
2019-05-01T23:06:10.644Z,45.90
2019-05-01T23:08:39.149Z,47.23
2019-05-01T23:11:19.006Z,48.17
2019-05-01T23:13:37.982Z,46.18
2019-05-01T23:16:06.954Z,42.70
2019-05-01T23:18:35.382Z,44.40
2019-05-01T23:21:04.263Z,43.95
2019-05-01T23:23:32.765Z,43.17
2019-05-01T23:26:01.204Z,42.33
2019-05-01T23:28:29.621Z,40.98
2019-05-01T23:30:58.050Z,44.83
2019-05-01T23:33:26.489Z,44.85
2019-05-01T23:35:54.985Z,42.50
2019-05-01T23:38:23.473Z,43.20
2019-05-01T23:40:52.964Z,44.10
2019-05-01T23:43:23.012Z,40.75
2019-05-01T23:45:51.682Z,41.45
2019-05-01T23:48:20.102Z,40.55
2019-05-01T23:50:48.543Z,42.30
2019-05-01T23:53:16.972Z,41.37
2019-05-01T23:55:45.424Z,40.92
2019-05-01T23:58:14.472Z,41.18
